sensor_id;sensor_type;location;lat;lon;timestamp;P1;durP1;ratioP1;P2;durP2;ratioP2
59336;SDS011;45115;52.002;4.686;2022-10-31T00:00:56;9.15;;;4.20;;
59336;SDS011;45115;52.002;4.686;2022-10-31T00:03:23;10.43;;;4.60;;
59336;SDS011;45115;52.002;4.686;2022-10-31T00:05:51;7.78;;;4.13;;
59336;SDS011;45115;52.002;4.686;2022-10-31T00:08:20;7.93;;;4.45;;
59336;SDS011;45115;52.002;4.686;2022-10-31T00:10:47;10.85;;;4.68;;
59336;SDS011;45115;52.002;4.686;2022-10-31T00:13:13;9.80;;;4.88;;
59336;SDS011;45115;52.002;4.686;2022-10-31T00:15:40;12.02;;;4.95;;
59336;SDS011;45115;52.002;4.686;2022-10-31T00:18:10;10.52;;;4.70;;
59336;SDS011;45115;52.002;4.686;2022-10-31T00:20:37;10.13;;;4.45;;
59336;SDS011;45115;52.002;4.686;2022-10-31T00:23:04;10.15;;;4.80;;
59336;SDS011;45115;52.002;4.686;2022-10-31T00:25:34;9.32;;;4.68;;
59336;SDS011;45115;52.002;4.686;2022-10-31T00:28:02;10.38;;;5.38;;
59336;SDS011;45115;52.002;4.686;2022-10-31T00:30:29;11.23;;;5.07;;
59336;SDS011;45115;52.002;4.686;2022-10-31T00:32:55;9.63;;;4.68;;
59336;SDS011;45115;52.002;4.686;2022-10-31T00:35:22;8.48;;;4.75;;
59336;SDS011;45115;52.002;4.686;2022-10-31T00:37:49;9.25;;;4.90;;
59336;SDS011;45115;52.002;4.686;2022-10-31T00:40:16;13.18;;;5.55;;
59336;SDS011;45115;52.002;4.686;2022-10-31T00:42:44;8.98;;;4.55;;
59336;SDS011;45115;52.002;4.686;2022-10-31T00:45:11;12.55;;;5.50;;
59336;SDS011;45115;52.002;4.686;2022-10-31T00:47:38;10.10;;;4.35;;
59336;SDS011;45115;52.002;4.686;2022-10-31T00:50:05;11.52;;;5.47;;
59336;SDS011;45115;52.002;4.686;2022-10-31T00:52:33;12.63;;;5.65;;
59336;SDS011;45115;52.002;4.686;2022-10-31T00:55:03;13.48;;;6.35;;
59336;SDS011;45115;52.002;4.686;2022-10-31T00:57:31;13.52;;;6.57;;
59336;SDS011;45115;52.002;4.686;2022-10-31T00:59:59;13.73;;;5.88;;
59336;SDS011;45115;52.002;4.686;2022-10-31T01:02:27;14.80;;;7.63;;
59336;SDS011;45115;52.002;4.686;2022-10-31T01:04:53;12.48;;;6.25;;
59336;SDS011;45115;52.002;4.686;2022-10-31T01:07:23;12.60;;;6.57;;
59336;SDS011;45115;52.002;4.686;2022-10-31T01:09:50;12.65;;;6.63;;
59336;SDS011;45115;52.002;4.686;2022-10-31T01:12:18;11.68;;;5.95;;
59336;SDS011;45115;52.002;4.686;2022-10-31T01:14:45;14.00;;;6.10;;
59336;SDS011;45115;52.002;4.686;2022-10-31T01:17:13;10.45;;;5.38;;
59336;SDS011;45115;52.002;4.686;2022-10-31T01:19:40;11.82;;;5.55;;
59336;SDS011;45115;52.002;4.686;2022-10-31T01:22:07;12.93;;;6.00;;
59336;SDS011;45115;52.002;4.686;2022-10-31T01:24:34;12.85;;;5.88;;
59336;SDS011;45115;52.002;4.686;2022-10-31T01:27:01;10.65;;;5.78;;
59336;SDS011;45115;52.002;4.686;2022-10-31T01:29:31;13.43;;;6.53;;
59336;SDS011;45115;52.002;4.686;2022-10-31T01:31:57;11.23;;;5.35;;
59336;SDS011;45115;52.002;4.686;2022-10-31T01:34:26;10.75;;;5.63;;
59336;SDS011;45115;52.002;4.686;2022-10-31T01:36:53;11.55;;;6.35;;
59336;SDS011;45115;52.002;4.686;2022-10-31T01:39:21;11.98;;;6.65;;
59336;SDS011;45115;52.002;4.686;2022-10-31T01:41:49;11.45;;;6.07;;
59336;SDS011;45115;52.002;4.686;2022-10-31T01:50:15;11.50;;;6.13;;
59336;SDS011;45115;52.002;4.686;2022-10-31T01:52:52;11.25;;;5.90;;
59336;SDS011;45115;52.002;4.686;2022-10-31T01:55:20;11.52;;;6.00;;
59336;SDS011;45115;52.002;4.686;2022-10-31T01:57:51;14.32;;;6.22;;
59336;SDS011;45115;52.002;4.686;2022-10-31T02:00:21;12.43;;;6.97;;
59336;SDS011;45115;52.002;4.686;2022-10-31T02:02:48;16.58;;;7.97;;
59336;SDS011;45115;52.002;4.686;2022-10-31T02:05:18;16.13;;;8.60;;
59336;SDS011;45115;52.002;4.686;2022-10-31T02:10:17;17.00;;;8.68;;
59336;SDS011;45115;52.002;4.686;2022-10-31T02:12:47;14.52;;;7.47;;
59336;SDS011;45115;52.002;4.686;2022-10-31T02:15:15;16.20;;;8.30;;
59336;SDS011;45115;52.002;4.686;2022-10-31T02:17:42;15.40;;;8.55;;
59336;SDS011;45115;52.002;4.686;2022-10-31T02:20:11;18.00;;;9.57;;
59336;SDS011;45115;52.002;4.686;2022-10-31T02:22:54;19.98;;;10.32;;
59336;SDS011;45115;52.002;4.686;2022-10-31T02:25:45;17.35;;;9.63;;
59336;SDS011;45115;52.002;4.686;2022-10-31T02:28:28;16.52;;;8.73;;
59336;SDS011;45115;52.002;4.686;2022-10-31T02:31:12;14.73;;;8.48;;
59336;SDS011;45115;52.002;4.686;2022-10-31T02:33:48;16.83;;;9.10;;
59336;SDS011;45115;52.002;4.686;2022-10-31T02:36:20;15.55;;;8.68;;
59336;SDS011;45115;52.002;4.686;2022-10-31T02:38:54;17.35;;;9.63;;
59336;SDS011;45115;52.002;4.686;2022-10-31T02:41:37;19.20;;;10.60;;
59336;SDS011;45115;52.002;4.686;2022-10-31T02:44:15;18.75;;;10.85;;
59336;SDS011;45115;52.002;4.686;2022-10-31T02:46:49;18.75;;;10.10;;
59336;SDS011;45115;52.002;4.686;2022-10-31T02:49:22;19.33;;;10.80;;
59336;SDS011;45115;52.002;4.686;2022-10-31T02:52:00;17.73;;;10.23;;
59336;SDS011;45115;52.002;4.686;2022-10-31T02:54:27;18.13;;;10.15;;
59336;SDS011;45115;52.002;4.686;2022-10-31T02:56:57;18.27;;;10.18;;
59336;SDS011;45115;52.002;4.686;2022-10-31T02:59:28;16.58;;;9.02;;
59336;SDS011;45115;52.002;4.686;2022-10-31T03:07:54;20.67;;;11.82;;
59336;SDS011;45115;52.002;4.686;2022-10-31T03:10:28;18.52;;;11.85;;
59336;SDS011;45115;52.002;4.686;2022-10-31T03:13:01;20.48;;;12.25;;
59336;SDS011;45115;52.002;4.686;2022-10-31T03:15:36;23.75;;;13.05;;
59336;SDS011;45115;52.002;4.686;2022-10-31T03:18:08;23.90;;;14.25;;
59336;SDS011;45115;52.002;4.686;2022-10-31T03:20:39;22.73;;;13.27;;
59336;SDS011;45115;52.002;4.686;2022-10-31T03:23:09;20.98;;;14.23;;
59336;SDS011;45115;52.002;4.686;2022-10-31T03:25:39;22.42;;;14.52;;
59336;SDS011;45115;52.002;4.686;2022-10-31T03:28:08;24.08;;;15.15;;
59336;SDS011;45115;52.002;4.686;2022-10-31T03:30:39;24.30;;;15.40;;
59336;SDS011;45115;52.002;4.686;2022-10-31T03:33:11;22.85;;;14.55;;
59336;SDS011;45115;52.002;4.686;2022-10-31T03:35:41;28.60;;;18.30;;
59336;SDS011;45115;52.002;4.686;2022-10-31T03:38:11;26.35;;;16.08;;
59336;SDS011;45115;52.002;4.686;2022-10-31T03:40:40;29.50;;;16.95;;
59336;SDS011;45115;52.002;4.686;2022-10-31T03:43:10;30.20;;;17.60;;
59336;SDS011;45115;52.002;4.686;2022-10-31T03:45:44;24.73;;;16.60;;
59336;SDS011;45115;52.002;4.686;2022-10-31T03:48:14;24.20;;;16.85;;
59336;SDS011;45115;52.002;4.686;2022-10-31T03:50:45;25.83;;;15.98;;
59336;SDS011;45115;52.002;4.686;2022-10-31T03:53:19;26.10;;;16.52;;
59336;SDS011;45115;52.002;4.686;2022-10-31T03:55:52;31.92;;;19.23;;
59336;SDS011;45115;52.002;4.686;2022-10-31T03:58:26;29.88;;;18.13;;
59336;SDS011;45115;52.002;4.686;2022-10-31T04:00:56;30.70;;;18.50;;
59336;SDS011;45115;52.002;4.686;2022-10-31T04:03:28;27.45;;;17.42;;
59336;SDS011;45115;52.002;4.686;2022-10-31T04:05:59;26.77;;;17.55;;
59336;SDS011;45115;52.002;4.686;2022-10-31T04:08:32;27.73;;;17.42;;
59336;SDS011;45115;52.002;4.686;2022-10-31T04:11:05;26.15;;;17.45;;
59336;SDS011;45115;52.002;4.686;2022-10-31T04:13:39;27.42;;;16.27;;
59336;SDS011;45115;52.002;4.686;2022-10-31T04:16:13;29.25;;;17.27;;
59336;SDS011;45115;52.002;4.686;2022-10-31T04:18:43;26.02;;;16.65;;
59336;SDS011;45115;52.002;4.686;2022-10-31T04:23:39;22.85;;;15.65;;
59336;SDS011;45115;52.002;4.686;2022-10-31T04:26:13;31.88;;;19.75;;
59336;SDS011;45115;52.002;4.686;2022-10-31T04:28:42;28.42;;;17.77;;
59336;SDS011;45115;52.002;4.686;2022-10-31T04:31:10;30.38;;;19.55;;
59336;SDS011;45115;52.002;4.686;2022-10-31T04:33:38;30.23;;;19.30;;
59336;SDS011;45115;52.002;4.686;2022-10-31T04:36:06;30.05;;;18.25;;
59336;SDS011;45115;52.002;4.686;2022-10-31T04:38:33;28.08;;;17.85;;
59336;SDS011;45115;52.002;4.686;2022-10-31T04:41:04;31.63;;;19.40;;
59336;SDS011;45115;52.002;4.686;2022-10-31T04:43:36;32.78;;;20.33;;
59336;SDS011;45115;52.002;4.686;2022-10-31T04:46:03;32.53;;;20.45;;
59336;SDS011;45115;52.002;4.686;2022-10-31T04:48:30;32.33;;;20.30;;
59336;SDS011;45115;52.002;4.686;2022-10-31T04:51:00;33.17;;;21.77;;
59336;SDS011;45115;52.002;4.686;2022-10-31T04:53:29;29.55;;;19.52;;
59336;SDS011;45115;52.002;4.686;2022-10-31T04:56:25;32.78;;;21.30;;
59336;SDS011;45115;52.002;4.686;2022-10-31T04:58:57;31.42;;;20.48;;
59336;SDS011;45115;52.002;4.686;2022-10-31T05:01:24;32.60;;;20.65;;
59336;SDS011;45115;52.002;4.686;2022-10-31T05:03:51;31.65;;;20.05;;
59336;SDS011;45115;52.002;4.686;2022-10-31T05:06:18;36.35;;;21.75;;
59336;SDS011;45115;52.002;4.686;2022-10-31T05:08:46;36.60;;;21.33;;
59336;SDS011;45115;52.002;4.686;2022-10-31T05:11:13;37.97;;;20.45;;
59336;SDS011;45115;52.002;4.686;2022-10-31T05:13:42;30.90;;;19.88;;
59336;SDS011;45115;52.002;4.686;2022-10-31T05:16:11;36.45;;;21.90;;
59336;SDS011;45115;52.002;4.686;2022-10-31T05:18:56;37.03;;;20.88;;
59336;SDS011;45115;52.002;4.686;2022-10-31T05:21:49;35.60;;;22.00;;
59336;SDS011;45115;52.002;4.686;2022-10-31T05:24:18;37.17;;;21.83;;
59336;SDS011;45115;52.002;4.686;2022-10-31T05:26:47;34.50;;;20.48;;
59336;SDS011;45115;52.002;4.686;2022-10-31T05:29:14;35.95;;;21.27;;
59336;SDS011;45115;52.002;4.686;2022-10-31T05:31:40;38.85;;;21.75;;
59336;SDS011;45115;52.002;4.686;2022-10-31T05:34:32;35.72;;;21.23;;
59336;SDS011;45115;52.002;4.686;2022-10-31T05:37:12;37.22;;;22.75;;
59336;SDS011;45115;52.002;4.686;2022-10-31T05:39:40;32.00;;;20.25;;
59336;SDS011;45115;52.002;4.686;2022-10-31T05:42:12;36.58;;;22.10;;
59336;SDS011;45115;52.002;4.686;2022-10-31T05:44:39;37.03;;;20.65;;
59336;SDS011;45115;52.002;4.686;2022-10-31T05:47:13;34.85;;;19.38;;
59336;SDS011;45115;52.002;4.686;2022-10-31T05:49:55;34.65;;;20.13;;
59336;SDS011;45115;52.002;4.686;2022-10-31T05:52:40;32.25;;;18.30;;
59336;SDS011;45115;52.002;4.686;2022-10-31T05:55:25;33.65;;;19.83;;
59336;SDS011;45115;52.002;4.686;2022-10-31T05:58:07;34.85;;;19.73;;
59336;SDS011;45115;52.002;4.686;2022-10-31T06:00:35;38.25;;;19.52;;
59336;SDS011;45115;52.002;4.686;2022-10-31T06:05:54;30.80;;;17.52;;
59336;SDS011;45115;52.002;4.686;2022-10-31T06:08:24;35.40;;;21.70;;
59336;SDS011;45115;52.002;4.686;2022-10-31T06:10:55;34.40;;;21.15;;
59336;SDS011;45115;52.002;4.686;2022-10-31T06:13:42;40.85;;;21.23;;
59336;SDS011;45115;52.002;4.686;2022-10-31T06:16:16;29.48;;;18.27;;
59336;SDS011;45115;52.002;4.686;2022-10-31T06:18:45;32.88;;;19.70;;
59336;SDS011;45115;52.002;4.686;2022-10-31T06:21:12;32.92;;;19.50;;
59336;SDS011;45115;52.002;4.686;2022-10-31T06:23:39;38.75;;;21.55;;
59336;SDS011;45115;52.002;4.686;2022-10-31T06:26:45;41.22;;;21.13;;
59336;SDS011;45115;52.002;4.686;2022-10-31T06:29:13;26.90;;;16.85;;
59336;SDS011;45115;52.002;4.686;2022-10-31T06:32:09;28.95;;;17.70;;
59336;SDS011;45115;52.002;4.686;2022-10-31T06:34:40;31.30;;;18.33;;
59336;SDS011;45115;52.002;4.686;2022-10-31T06:37:08;27.73;;;17.73;;
59336;SDS011;45115;52.002;4.686;2022-10-31T06:39:37;30.17;;;17.85;;
59336;SDS011;45115;52.002;4.686;2022-10-31T06:42:06;51.28;;;18.98;;
59336;SDS011;45115;52.002;4.686;2022-10-31T06:44:33;31.33;;;16.58;;
59336;SDS011;45115;52.002;4.686;2022-10-31T06:47:19;26.98;;;17.05;;
59336;SDS011;45115;52.002;4.686;2022-10-31T06:49:59;42.20;;;19.33;;
59336;SDS011;45115;52.002;4.686;2022-10-31T06:52:26;41.85;;;18.23;;
59336;SDS011;45115;52.002;4.686;2022-10-31T06:54:53;44.38;;;17.90;;
59336;SDS011;45115;52.002;4.686;2022-10-31T06:57:23;36.00;;;17.48;;
59336;SDS011;45115;52.002;4.686;2022-10-31T06:59:49;36.17;;;17.52;;
59336;SDS011;45115;52.002;4.686;2022-10-31T07:02:19;32.17;;;16.90;;
59336;SDS011;45115;52.002;4.686;2022-10-31T07:04:47;34.08;;;16.40;;
59336;SDS011;45115;52.002;4.686;2022-10-31T07:07:16;30.38;;;17.52;;
59336;SDS011;45115;52.002;4.686;2022-10-31T07:09:44;27.88;;;16.73;;
59336;SDS011;45115;52.002;4.686;2022-10-31T07:12:13;63.78;;;18.30;;
59336;SDS011;45115;52.002;4.686;2022-10-31T07:14:50;30.35;;;16.98;;
59336;SDS011;45115;52.002;4.686;2022-10-31T07:17:17;48.92;;;19.08;;
59336;SDS011;45115;52.002;4.686;2022-10-31T07:19:44;27.67;;;16.63;;
59336;SDS011;45115;52.002;4.686;2022-10-31T07:22:14;50.53;;;16.73;;
59336;SDS011;45115;52.002;4.686;2022-10-31T07:24:43;30.33;;;17.33;;
59336;SDS011;45115;52.002;4.686;2022-10-31T07:27:29;42.45;;;18.23;;
59336;SDS011;45115;52.002;4.686;2022-10-31T07:30:04;25.67;;;16.52;;
59336;SDS011;45115;52.002;4.686;2022-10-31T07:32:38;33.47;;;16.52;;
59336;SDS011;45115;52.002;4.686;2022-10-31T07:35:06;29.33;;;15.50;;
59336;SDS011;45115;52.002;4.686;2022-10-31T07:37:45;23.67;;;15.52;;
59336;SDS011;45115;52.002;4.686;2022-10-31T07:40:12;39.92;;;17.65;;
59336;SDS011;45115;52.002;4.686;2022-10-31T07:42:39;27.55;;;16.58;;
59336;SDS011;45115;52.002;4.686;2022-10-31T07:45:28;29.08;;;17.08;;
59336;SDS011;45115;52.002;4.686;2022-10-31T07:48:13;57.60;;;19.70;;
59336;SDS011;45115;52.002;4.686;2022-10-31T07:51:00;58.92;;;19.33;;
59336;SDS011;45115;52.002;4.686;2022-10-31T07:53:45;26.45;;;16.50;;
59336;SDS011;45115;52.002;4.686;2022-10-31T07:56:22;34.70;;;17.23;;
59336;SDS011;45115;52.002;4.686;2022-10-31T07:58:49;41.42;;;18.90;;
59336;SDS011;45115;52.002;4.686;2022-10-31T08:01:17;67.85;;;20.88;;
59336;SDS011;45115;52.002;4.686;2022-10-31T08:03:56;44.28;;;19.55;;
59336;SDS011;45115;52.002;4.686;2022-10-31T08:06:49;37.65;;;18.52;;
59336;SDS011;45115;52.002;4.686;2022-10-31T08:09:26;41.83;;;20.27;;
59336;SDS011;45115;52.002;4.686;2022-10-31T08:11:57;43.53;;;19.70;;
59336;SDS011;45115;52.002;4.686;2022-10-31T08:14:24;35.30;;;19.63;;
59336;SDS011;45115;52.002;4.686;2022-10-31T08:16:53;35.20;;;20.02;;
59336;SDS011;45115;52.002;4.686;2022-10-31T08:19:23;42.67;;;20.98;;
59336;SDS011;45115;52.002;4.686;2022-10-31T08:21:50;44.47;;;21.23;;
59336;SDS011;45115;52.002;4.686;2022-10-31T08:24:17;43.17;;;21.33;;
59336;SDS011;45115;52.002;4.686;2022-10-31T08:26:44;45.50;;;21.40;;
59336;SDS011;45115;52.002;4.686;2022-10-31T08:29:11;40.53;;;22.02;;
59336;SDS011;45115;52.002;4.686;2022-10-31T08:31:39;42.75;;;22.15;;
59336;SDS011;45115;52.002;4.686;2022-10-31T08:34:43;33.95;;;19.83;;
59336;SDS011;45115;52.002;4.686;2022-10-31T08:37:28;35.03;;;21.42;;
59336;SDS011;45115;52.002;4.686;2022-10-31T08:39:55;37.58;;;20.92;;
59336;SDS011;45115;52.002;4.686;2022-10-31T08:42:22;36.25;;;20.70;;
59336;SDS011;45115;52.002;4.686;2022-10-31T08:44:49;43.25;;;24.00;;
59336;SDS011;45115;52.002;4.686;2022-10-31T08:47:19;37.67;;;22.13;;
59336;SDS011;45115;52.002;4.686;2022-10-31T08:49:48;40.33;;;22.67;;
59336;SDS011;45115;52.002;4.686;2022-10-31T08:52:15;43.58;;;24.33;;
59336;SDS011;45115;52.002;4.686;2022-10-31T08:54:43;43.63;;;24.50;;
59336;SDS011;45115;52.002;4.686;2022-10-31T08:57:28;45.58;;;26.63;;
59336;SDS011;45115;52.002;4.686;2022-10-31T08:59:56;46.15;;;26.75;;
59336;SDS011;45115;52.002;4.686;2022-10-31T09:02:45;49.80;;;28.55;;
59336;SDS011;45115;52.002;4.686;2022-10-31T09:05:14;48.70;;;28.05;;
59336;SDS011;45115;52.002;4.686;2022-10-31T09:07:41;48.45;;;28.40;;
59336;SDS011;45115;52.002;4.686;2022-10-31T09:10:08;50.17;;;28.40;;
59336;SDS011;45115;52.002;4.686;2022-10-31T09:12:37;48.22;;;29.02;;
59336;SDS011;45115;52.002;4.686;2022-10-31T09:15:22;48.20;;;25.95;;
59336;SDS011;45115;52.002;4.686;2022-10-31T09:18:10;43.53;;;26.45;;
59336;SDS011;45115;52.002;4.686;2022-10-31T09:20:49;39.85;;;24.13;;
59336;SDS011;45115;52.002;4.686;2022-10-31T09:23:17;40.42;;;23.48;;
59336;SDS011;45115;52.002;4.686;2022-10-31T09:25:45;40.17;;;23.50;;
59336;SDS011;45115;52.002;4.686;2022-10-31T09:28:36;36.35;;;22.27;;
59336;SDS011;45115;52.002;4.686;2022-10-31T09:31:08;34.67;;;20.52;;
59336;SDS011;45115;52.002;4.686;2022-10-31T09:33:49;37.30;;;21.33;;
59336;SDS011;45115;52.002;4.686;2022-10-31T09:36:38;36.40;;;22.42;;
59336;SDS011;45115;52.002;4.686;2022-10-31T09:39:08;35.03;;;21.45;;
59336;SDS011;45115;52.002;4.686;2022-10-31T09:41:42;38.17;;;22.25;;
59336;SDS011;45115;52.002;4.686;2022-10-31T09:44:26;31.30;;;19.83;;
59336;SDS011;45115;52.002;4.686;2022-10-31T09:47:04;38.42;;;22.67;;
59336;SDS011;45115;52.002;4.686;2022-10-31T09:49:55;36.45;;;21.58;;
59336;SDS011;45115;52.002;4.686;2022-10-31T09:52:35;36.03;;;20.10;;
59336;SDS011;45115;52.002;4.686;2022-10-31T09:55:08;35.85;;;22.05;;
59336;SDS011;45115;52.002;4.686;2022-10-31T09:57:42;38.45;;;21.20;;
59336;SDS011;45115;52.002;4.686;2022-10-31T10:00:14;39.45;;;22.55;;
59336;SDS011;45115;52.002;4.686;2022-10-31T10:02:46;35.08;;;21.15;;
59336;SDS011;45115;52.002;4.686;2022-10-31T10:05:17;37.25;;;22.38;;
59336;SDS011;45115;52.002;4.686;2022-10-31T10:07:54;34.78;;;18.80;;
59336;SDS011;45115;52.002;4.686;2022-10-31T10:10:50;38.58;;;20.65;;
59336;SDS011;45115;52.002;4.686;2022-10-31T10:13:45;33.65;;;20.23;;
59336;SDS011;45115;52.002;4.686;2022-10-31T10:16:31;37.22;;;19.73;;
59336;SDS011;45115;52.002;4.686;2022-10-31T10:19:12;36.60;;;19.83;;
59336;SDS011;45115;52.002;4.686;2022-10-31T10:21:53;33.45;;;19.40;;
59336;SDS011;45115;52.002;4.686;2022-10-31T10:24:30;33.58;;;19.15;;
59336;SDS011;45115;52.002;4.686;2022-10-31T10:27:10;33.72;;;20.02;;
59336;SDS011;45115;52.002;4.686;2022-10-31T10:29:45;38.72;;;18.60;;
59336;SDS011;45115;52.002;4.686;2022-10-31T10:32:18;33.95;;;19.65;;
59336;SDS011;45115;52.002;4.686;2022-10-31T10:34:50;33.15;;;19.10;;
59336;SDS011;45115;52.002;4.686;2022-10-31T10:37:26;33.20;;;19.10;;
59336;SDS011;45115;52.002;4.686;2022-10-31T10:40:01;33.88;;;19.13;;
59336;SDS011;45115;52.002;4.686;2022-10-31T10:42:37;35.47;;;18.23;;
59336;SDS011;45115;52.002;4.686;2022-10-31T10:45:21;32.47;;;18.80;;
59336;SDS011;45115;52.002;4.686;2022-10-31T10:48:06;33.20;;;17.83;;
59336;SDS011;45115;52.002;4.686;2022-10-31T10:50:39;28.50;;;16.77;;
59336;SDS011;45115;52.002;4.686;2022-10-31T10:53:14;29.55;;;17.67;;
59336;SDS011;45115;52.002;4.686;2022-10-31T10:55:59;28.98;;;17.13;;
59336;SDS011;45115;52.002;4.686;2022-10-31T10:58:37;30.52;;;16.83;;
59336;SDS011;45115;52.002;4.686;2022-10-31T11:01:09;32.15;;;17.98;;
59336;SDS011;45115;52.002;4.686;2022-10-31T11:03:37;35.75;;;17.83;;
59336;SDS011;45115;52.002;4.686;2022-10-31T11:06:15;28.00;;;16.52;;
59336;SDS011;45115;52.002;4.686;2022-10-31T11:08:47;30.10;;;17.27;;
59336;SDS011;45115;52.002;4.686;2022-10-31T11:11:18;33.58;;;16.98;;
59336;SDS011;45115;52.002;4.686;2022-10-31T11:13:53;30.80;;;17.25;;
59336;SDS011;45115;52.002;4.686;2022-10-31T11:16:28;28.75;;;17.08;;
59336;SDS011;45115;52.002;4.686;2022-10-31T11:19:05;30.80;;;17.00;;
59336;SDS011;45115;52.002;4.686;2022-10-31T11:21:34;30.80;;;17.35;;
59336;SDS011;45115;52.002;4.686;2022-10-31T11:24:07;32.72;;;17.25;;
59336;SDS011;45115;52.002;4.686;2022-10-31T11:26:42;28.60;;;16.67;;
59336;SDS011;45115;52.002;4.686;2022-10-31T11:29:13;27.25;;;16.48;;
59336;SDS011;45115;52.002;4.686;2022-10-31T11:31:41;27.83;;;17.23;;
59336;SDS011;45115;52.002;4.686;2022-10-31T11:34:15;31.10;;;17.08;;
59336;SDS011;45115;52.002;4.686;2022-10-31T11:36:49;27.42;;;15.93;;
59336;SDS011;45115;52.002;4.686;2022-10-31T11:39:17;26.45;;;16.33;;
59336;SDS011;45115;52.002;4.686;2022-10-31T11:41:48;29.15;;;16.60;;
59336;SDS011;45115;52.002;4.686;2022-10-31T11:44:17;29.85;;;16.38;;
59336;SDS011;45115;52.002;4.686;2022-10-31T11:46:46;29.37;;;16.43;;
59336;SDS011;45115;52.002;4.686;2022-10-31T11:49:15;28.55;;;15.43;;
59336;SDS011;45115;52.002;4.686;2022-10-31T11:51:47;28.60;;;16.53;;
59336;SDS011;45115;52.002;4.686;2022-10-31T11:54:19;26.83;;;15.65;;
59336;SDS011;45115;52.002;4.686;2022-10-31T11:56:50;29.48;;;15.68;;
59336;SDS011;45115;52.002;4.686;2022-10-31T11:59:21;28.95;;;15.65;;
59336;SDS011;45115;52.002;4.686;2022-10-31T12:01:53;28.83;;;16.58;;
59336;SDS011;45115;52.002;4.686;2022-10-31T12:04:24;28.30;;;15.02;;
59336;SDS011;45115;52.002;4.686;2022-10-31T12:07:02;25.65;;;15.30;;
59336;SDS011;45115;52.002;4.686;2022-10-31T12:09:30;28.10;;;15.90;;
59336;SDS011;45115;52.002;4.686;2022-10-31T12:12:10;26.33;;;15.25;;
59336;SDS011;45115;52.002;4.686;2022-10-31T12:14:57;27.38;;;16.23;;
59336;SDS011;45115;52.002;4.686;2022-10-31T12:17:46;30.25;;;17.20;;
59336;SDS011;45115;52.002;4.686;2022-10-31T12:20:20;28.58;;;15.50;;
59336;SDS011;45115;52.002;4.686;2022-10-31T12:22:54;26.38;;;15.63;;
59336;SDS011;45115;52.002;4.686;2022-10-31T12:25:34;29.08;;;16.40;;
59336;SDS011;45115;52.002;4.686;2022-10-31T12:31:17;29.75;;;16.45;;
59336;SDS011;45115;52.002;4.686;2022-10-31T12:33:59;27.73;;;15.95;;
59336;SDS011;45115;52.002;4.686;2022-10-31T12:36:42;28.25;;;15.57;;
59336;SDS011;45115;52.002;4.686;2022-10-31T12:39:24;27.90;;;16.15;;
59336;SDS011;45115;52.002;4.686;2022-10-31T12:42:17;31.92;;;16.95;;
59336;SDS011;45115;52.002;4.686;2022-10-31T12:45:12;31.58;;;16.90;;
59336;SDS011;45115;52.002;4.686;2022-10-31T12:47:56;34.85;;;17.00;;
59336;SDS011;45115;52.002;4.686;2022-10-31T12:50:47;36.05;;;18.63;;
59336;SDS011;45115;52.002;4.686;2022-10-31T12:53:25;33.20;;;18.33;;
59336;SDS011;45115;52.002;4.686;2022-10-31T12:56:07;35.83;;;19.30;;
59336;SDS011;45115;52.002;4.686;2022-10-31T12:58:49;36.47;;;19.25;;
59336;SDS011;45115;52.002;4.686;2022-10-31T13:01:26;35.95;;;20.08;;
59336;SDS011;45115;52.002;4.686;2022-10-31T13:04:01;36.85;;;20.88;;
59336;SDS011;45115;52.002;4.686;2022-10-31T13:06:32;36.30;;;20.58;;
59336;SDS011;45115;52.002;4.686;2022-10-31T13:11:33;41.15;;;20.80;;
59336;SDS011;45115;52.002;4.686;2022-10-31T13:14:05;39.30;;;19.65;;
59336;SDS011;45115;52.002;4.686;2022-10-31T13:16:38;37.40;;;21.13;;
59336;SDS011;45115;52.002;4.686;2022-10-31T13:19:09;36.13;;;20.40;;
59336;SDS011;45115;52.002;4.686;2022-10-31T13:21:44;40.08;;;19.63;;
59336;SDS011;45115;52.002;4.686;2022-10-31T13:24:23;35.03;;;19.10;;
59336;SDS011;45115;52.002;4.686;2022-10-31T13:26:58;33.70;;;19.25;;
59336;SDS011;45115;52.002;4.686;2022-10-31T13:29:29;36.35;;;20.00;;
59336;SDS011;45115;52.002;4.686;2022-10-31T13:32:03;35.20;;;19.50;;
59336;SDS011;45115;52.002;4.686;2022-10-31T13:34:32;37.20;;;20.25;;
59336;SDS011;45115;52.002;4.686;2022-10-31T13:37:05;39.35;;;20.83;;
59336;SDS011;45115;52.002;4.686;2022-10-31T13:39:44;42.50;;;21.23;;
59336;SDS011;45115;52.002;4.686;2022-10-31T13:42:22;40.20;;;21.63;;
59336;SDS011;45115;52.002;4.686;2022-10-31T13:45:06;35.38;;;20.33;;
59336;SDS011;45115;52.002;4.686;2022-10-31T13:47:40;41.35;;;22.60;;
59336;SDS011;45115;52.002;4.686;2022-10-31T13:50:18;38.60;;;21.83;;
59336;SDS011;45115;52.002;4.686;2022-10-31T13:52:47;42.78;;;23.38;;
59336;SDS011;45115;52.002;4.686;2022-10-31T13:55:33;41.72;;;23.02;;
59336;SDS011;45115;52.002;4.686;2022-10-31T13:58:03;44.17;;;22.85;;
59336;SDS011;45115;52.002;4.686;2022-10-31T14:00:30;46.20;;;23.33;;
59336;SDS011;45115;52.002;4.686;2022-10-31T14:03:01;43.67;;;23.67;;
59336;SDS011;45115;52.002;4.686;2022-10-31T14:05:29;41.55;;;23.02;;
59336;SDS011;45115;52.002;4.686;2022-10-31T14:07:59;43.85;;;22.70;;
59336;SDS011;45115;52.002;4.686;2022-10-31T14:10:29;43.72;;;23.77;;
59336;SDS011;45115;52.002;4.686;2022-10-31T14:13:03;41.27;;;22.97;;
59336;SDS011;45115;52.002;4.686;2022-10-31T14:15:33;41.17;;;22.73;;
59336;SDS011;45115;52.002;4.686;2022-10-31T14:18:20;36.13;;;21.88;;
59336;SDS011;45115;52.002;4.686;2022-10-31T14:20:49;42.88;;;22.88;;
59336;SDS011;45115;52.002;4.686;2022-10-31T14:23:31;41.55;;;23.48;;
59336;SDS011;45115;52.002;4.686;2022-10-31T14:26:16;40.08;;;23.23;;
59336;SDS011;45115;52.002;4.686;2022-10-31T14:28:45;42.30;;;22.90;;
59336;SDS011;45115;52.002;4.686;2022-10-31T14:31:26;43.92;;;23.70;;
59336;SDS011;45115;52.002;4.686;2022-10-31T14:33:58;40.03;;;23.90;;
59336;SDS011;45115;52.002;4.686;2022-10-31T14:36:27;43.03;;;22.92;;
59336;SDS011;45115;52.002;4.686;2022-10-31T14:39:04;41.47;;;23.60;;
59336;SDS011;45115;52.002;4.686;2022-10-31T14:41:43;40.17;;;22.92;;
59336;SDS011;45115;52.002;4.686;2022-10-31T14:44:26;41.75;;;22.77;;
59336;SDS011;45115;52.002;4.686;2022-10-31T14:47:14;45.88;;;24.50;;
59336;SDS011;45115;52.002;4.686;2022-10-31T14:49:55;42.25;;;23.40;;
59336;SDS011;45115;52.002;4.686;2022-10-31T14:52:35;47.45;;;24.73;;
59336;SDS011;45115;52.002;4.686;2022-10-31T14:55:05;39.75;;;22.40;;
59336;SDS011;45115;52.002;4.686;2022-10-31T14:57:37;38.83;;;23.20;;
59336;SDS011;45115;52.002;4.686;2022-10-31T15:00:12;40.42;;;22.33;;
59336;SDS011;45115;52.002;4.686;2022-10-31T15:02:45;42.70;;;22.70;;
59336;SDS011;45115;52.002;4.686;2022-10-31T15:05:20;43.22;;;22.52;;
59336;SDS011;45115;52.002;4.686;2022-10-31T15:07:48;46.35;;;22.75;;
59336;SDS011;45115;52.002;4.686;2022-10-31T15:10:21;39.83;;;22.75;;
59336;SDS011;45115;52.002;4.686;2022-10-31T15:12:49;39.72;;;23.48;;
59336;SDS011;45115;52.002;4.686;2022-10-31T15:15:17;41.33;;;21.77;;
59336;SDS011;45115;52.002;4.686;2022-10-31T15:17:48;44.28;;;23.50;;
59336;SDS011;45115;52.002;4.686;2022-10-31T15:20:17;41.53;;;23.05;;
59336;SDS011;45115;52.002;4.686;2022-10-31T15:22:47;44.85;;;24.17;;
59336;SDS011;45115;52.002;4.686;2022-10-31T15:25:16;43.33;;;21.88;;